Time;durP1;ratioP1;P1;durP2;ratioP2;P2;SDS_P1;SDS_P2;PMS_P1;PMS_P2;Temp;Humidity;BMP_temperature;BMP_pressure;BME280_temperature;BME280_humidity;BME280_pressure;Samples;Min_cycle;Max_cycle;Signal;HPM_P1;HPM_P2
2022/11/14 00:01:31;;;;;;;;;;;7.10;75.60;;;;;;5075436;28;19999;-80
2022/11/14 00:03:57;;;;;;;;;;;7.00;75.30;;;;;;5073625;28;19916;-78
2022/11/14 00:06:22;;;;;;;;;;;7.10;75.40;;;;;;5079999;28;20374;-79
2022/11/14 00:08:47;;;;;;;;;;;7.10;75.90;;;;;;5060944;28;20369;-79
2022/11/14 00:11:13;;;;;;;;;;;7.10;75.50;;;;;;5072417;28;20400;-80
2022/11/14 00:13:38;;;;;;;;;;;7.00;75.50;;;;;;5074340;28;20434;-80
2022/11/14 00:16:04;;;;;;;;;;;7.00;75.80;;;;;;5055525;28;19917;-77
2022/11/14 00:18:29;;;;;;;;;;;6.90;75.90;;;;;;5074148;28;19970;-80
2022/11/14 00:20:54;;;;;;;;;;;6.90;76.20;;;;;;5074732;28;19912;-79
2022/11/14 00:23:20;;;;;;;;;;;6.90;76.70;;;;;;5058470;28;20324;-80
2022/11/14 00:25:46;;;;;;;;;;;6.90;76.90;;;;;;5050912;28;20419;-79
2022/11/14 00:28:11;;;;;;;;;;;6.80;77.00;;;;;;5077995;28;20016;-78
2022/11/14 00:30:37;;;;;;;;;;;6.80;77.30;;;;;;5054769;28;19939;-79
2022/11/14 00:33:02;;;;;;;;;;;6.90;76.90;;;;;;5050502;28;20512;-80
2022/11/14 00:35:28;;;;;;;;;;;6.80;76.40;;;;;;5073857;28;20298;-79
2022/11/14 00:37:53;;;;;;;;;;;6.70;76.50;;;;;;5074126;28;19912;-80
2022/11/14 00:40:19;;;;;;;;;;;6.60;77.10;;;;;;5069344;28;19916;-77
2022/11/14 00:42:44;;;;;;;;;;;6.60;77.40;;;;;;5070374;28;20370;-80
2022/11/14 00:45:10;;;;;;;;;;;6.60;77.70;;;;;;5075340;28;19917;-79
2022/11/14 00:47:35;;;;;;;;;;;6.60;78.00;;;;;;5077272;28;19916;-80
2022/11/14 00:50:01;;;;;;;;;;;6.60;78.10;;;;;;5082830;28;19919;-79
2022/11/14 00:52:26;;;;;;;;;;;6.50;78.20;;;;;;5085794;28;19912;-77
2022/11/14 00:54:52;;;;;;;;;;;6.50;78.30;;;;;;5069707;28;19966;-79
2022/11/14 00:57:17;;;;;;;;;;;6.50;77.90;;;;;;5072126;28;19920;-80
2022/11/14 00:59:43;;;;;;;;;;;6.50;77.90;;;;;;5050115;28;20291;-80
2022/11/14 01:02:08;;;;;;;;;;;6.30;78.00;;;;;;5080745;28;19912;-76
2022/11/14 01:04:33;;;;;;;;;;;6.30;78.70;;;;;;5078023;28;19912;-79
2022/11/14 01:06:59;;;;;;;;;;;6.30;78.80;;;;;;5071093;28;19927;-80
2022/11/14 01:09:24;;;;;;;;;;;6.30;78.50;;;;;;5084359;28;19980;-80
2022/11/14 01:11:50;;;;;;;;;;;6.30;78.80;;;;;;5083385;28;19912;-79
2022/11/14 01:14:15;;;;;;;;;;;6.20;79.30;;;;;;5075040;28;20417;-78
2022/11/14 01:16:41;;;;;;;;;;;6.20;79.40;;;;;;5063436;28;19966;-80
2022/11/14 01:19:06;;;;;;;;;;;6.20;79.60;;;;;;5071735;28;19916;-79
2022/11/14 01:21:32;;;;;;;;;;;6.20;79.80;;;;;;5089741;28;19912;-79
2022/11/14 01:23:57;;;;;;;;;;;6.20;79.60;;;;;;5084341;28;19924;-80
2022/11/14 01:26:23;;;;;;;;;;;6.10;79.30;;;;;;5085350;28;19912;-79
2022/11/14 01:28:48;;;;;;;;;;;6.10;79.40;;;;;;5051209;28;19916;-78
2022/11/14 01:31:14;;;;;;;;;;;6.10;79.30;;;;;;5051980;28;19913;-80
2022/11/14 01:33:40;;;;;;;;;;;6.10;79.60;;;;;;5052642;28;19916;-79
2022/11/14 01:36:06;;;;;;;;;;;6.10;79.40;;;;;;5054915;28;19912;-79
2022/11/14 01:38:32;;;;;;;;;;;6.00;79.90;;;;;;5077765;28;19923;-80
2022/11/14 01:40:57;;;;;;;;;;;6.00;79.50;;;;;;5081226;28;19954;-79
2022/11/14 01:43:26;;;;;;;;;;;6.00;79.10;;;;;;5055998;28;19917;-80
2022/11/14 01:46:01;;;;;;;;;;;5.90;79.60;;;;;;5056969;28;20008;-80
2022/11/14 01:48:36;;;;;;;;;;;5.90;80.00;;;;;;5072611;28;20419;-80
2022/11/14 01:51:20;;;;;;;;;;;5.90;80.30;;;;;;5063882;28;20003;-80
2022/11/14 01:53:47;;;;;;;;;;;5.90;80.10;;;;;;5071864;28;19912;-77
2022/11/14 01:56:17;;;;;;;;;;;5.80;79.90;;;;;;5073911;28;19913;-80
2022/11/14 01:58:45;;;;;;;;;;;5.70;80.20;;;;;;5076107;28;19918;-80
2022/11/14 02:01:10;;;;;;;;;;;5.70;80.10;;;;;;5072083;28;19912;-78
2022/11/14 02:03:37;;;;;;;;;;;5.60;80.50;;;;;;5053451;28;19936;-79
2022/11/14 02:06:03;;;;;;;;;;;5.70;80.40;;;;;;5069159;28;19912;-78
2022/11/14 02:08:29;;;;;;;;;;;5.80;79.90;;;;;;5077529;28;19916;-79
2022/11/14 02:10:54;;;;;;;;;;;5.80;79.30;;;;;;5057035;28;20377;-79
2022/11/14 02:13:19;;;;;;;;;;;5.60;79.60;;;;;;5075616;28;20383;-78
2022/11/14 02:15:45;;;;;;;;;;;5.60;79.80;;;;;;5072823;28;19919;-80
2022/11/14 02:18:11;;;;;;;;;;;5.60;80.10;;;;;;5056409;28;19912;-79
2022/11/14 02:20:42;;;;;;;;;;;5.60;80.80;;;;;;5055112;28;19920;-78
2022/11/14 02:23:06;;;;;;;;;;;5.50;80.20;;;;;;5090412;22;19939;-84
2022/11/14 02:25:32;;;;;;;;;;;5.60;80.30;;;;;;5082355;28;20325;-84
2022/11/14 02:27:58;;;;;;;;;;;5.60;80.80;;;;;;5072548;28;20325;-83
2022/11/14 02:30:24;;;;;;;;;;;5.60;80.20;;;;;;5072063;28;19912;-84
2022/11/14 02:32:49;;;;;;;;;;;5.60;80.50;;;;;;5052904;28;19912;-83
2022/11/14 02:35:15;;;;;;;;;;;5.60;80.60;;;;;;5074082;28;19939;-84
2022/11/14 02:37:40;;;;;;;;;;;5.70;80.90;;;;;;5053567;28;20103;-84
2022/11/14 02:40:06;;;;;;;;;;;5.60;80.60;;;;;;5073444;28;20436;-84
2022/11/14 02:42:31;;;;;;;;;;;5.60;80.90;;;;;;5071440;28;19948;-83
2022/11/14 02:44:57;;;;;;;;;;;5.70;80.70;;;;;;5072453;28;19952;-84
2022/11/14 02:47:23;;;;;;;;;;;5.70;79.90;;;;;;5054880;28;19952;-84
2022/11/14 02:49:49;;;;;;;;;;;5.60;80.50;;;;;;5059782;28;19916;-84
2022/11/14 02:52:15;;;;;;;;;;;5.60;80.30;;;;;;5060042;28;20299;-83
2022/11/14 02:54:40;;;;;;;;;;;5.60;80.80;;;;;;5072344;28;19998;-84
2022/11/14 02:57:05;;;;;;;;;;;5.50;80.90;;;;;;5053959;28;20385;-84
2022/11/14 02:59:31;;;;;;;;;;;5.40;80.70;;;;;;5063056;28;19920;-83
2022/11/14 03:01:56;;;;;;;;;;;5.30;80.90;;;;;;5073568;28;19939;-84
2022/11/14 03:04:22;;;;;;;;;;;5.40;80.80;;;;;;5075544;28;19912;-84
2022/11/14 03:06:47;;;;;;;;;;;5.50;80.30;;;;;;5057956;28;20007;-84
2022/11/14 03:09:13;;;;;;;;;;;5.40;81.00;;;;;;5066227;28;20383;-83
2022/11/14 03:11:38;;;;;;;;;;;5.40;80.60;;;;;;5059594;28;20368;-84
2022/11/14 03:14:04;;;;;;;;;;;5.40;80.40;;;;;;5072392;28;19916;-84
2022/11/14 03:16:29;;;;;;;;;;;5.40;80.50;;;;;;5070167;28;19912;-84
2022/11/14 03:18:55;;;;;;;;;;;5.50;80.30;;;;;;5065875;28;19926;-84
2022/11/14 03:21:21;;;;;;;;;;;5.30;80.30;;;;;;5048907;28;19913;-84
2022/11/14 03:23:46;;;;;;;;;;;5.30;80.80;;;;;;5070081;28;19920;-83
2022/11/14 03:26:13;;;;;;;;;;;5.40;80.00;;;;;;5071243;28;20576;-83
2022/11/14 03:28:39;;;;;;;;;;;5.30;79.90;;;;;;5052622;28;19919;-83
2022/11/14 03:31:05;;;;;;;;;;;5.20;80.10;;;;;;5082985;28;20008;-83
2022/11/14 03:33:31;;;;;;;;;;;5.00;79.80;;;;;;5076114;28;19908;-84
2022/11/14 03:35:56;;;;;;;;;;;5.00;79.80;;;;;;5053819;28;19923;-83
2022/11/14 03:38:22;;;;;;;;;;;5.00;79.70;;;;;;5057917;28;20003;-84
2022/11/14 03:40:49;;;;;;;;;;;5.00;80.50;;;;;;5051312;28;19913;-83
2022/11/14 03:43:15;;;;;;;;;;;5.00;80.70;;;;;;5070845;28;20400;-84
2022/11/14 03:45:40;;;;;;;;;;;5.10;80.90;;;;;;5050800;28;19912;-83
2022/11/14 03:48:06;;;;;;;;;;;5.00;81.40;;;;;;5074473;28;20312;-83
2022/11/14 03:50:31;;;;;;;;;;;5.10;81.40;;;;;;5088404;28;20015;-83
2022/11/14 03:52:57;;;;;;;;;;;5.00;81.50;;;;;;5074280;28;19920;-84
2022/11/14 03:55:22;;;;;;;;;;;5.00;81.30;;;;;;5078854;28;19910;-83
2022/11/14 03:57:48;;;;;;;;;;;4.80;80.80;;;;;;5066215;28;20406;-83
2022/11/14 04:00:13;;;;;;;;;;;4.80;81.10;;;;;;5068773;28;19909;-83
2022/11/14 04:02:39;;;;;;;;;;;4.70;81.20;;;;;;5071078;28;19916;-84
2022/11/14 04:05:04;;;;;;;;;;;4.70;81.00;;;;;;5073886;28;19912;-83
2022/11/14 04:07:30;;;;;;;;;;;4.70;81.60;;;;;;5060755;28;19908;-83
2022/11/14 04:09:55;;;;;;;;;;;4.80;81.40;;;;;;5085981;28;19956;-83
2022/11/14 04:12:21;;;;;;;;;;;4.80;80.70;;;;;;5076575;28;19940;-83
2022/11/14 04:14:46;;;;;;;;;;;4.90;81.20;;;;;;5070086;28;19915;-83
2022/11/14 04:17:12;;;;;;;;;;;4.90;81.20;;;;;;5074987;28;19916;-83
2022/11/14 04:19:37;;;;;;;;;;;4.90;81.70;;;;;;5053035;28;19954;-83
2022/11/14 04:22:03;;;;;;;;;;;4.90;81.60;;;;;;5073390;28;19963;-83
2022/11/14 04:24:28;;;;;;;;;;;4.80;81.70;;;;;;5073117;28;19920;-83
2022/11/14 04:26:53;;;;;;;;;;;4.80;81.80;;;;;;5074623;28;19971;-82
2022/11/14 04:29:19;;;;;;;;;;;4.80;81.20;;;;;;5052230;28;19931;-82
2022/11/14 04:31:44;;;;;;;;;;;4.80;81.40;;;;;;5058779;28;19919;-83
2022/11/14 04:34:10;;;;;;;;;;;4.90;82.00;;;;;;5072287;28;19923;-83
2022/11/14 04:36:35;;;;;;;;;;;4.80;81.30;;;;;;5058432;28;20431;-84
2022/11/14 04:39:01;;;;;;;;;;;4.70;80.90;;;;;;5049948;28;20297;-83
2022/11/14 04:41:26;;;;;;;;;;;4.70;81.60;;;;;;5057080;28;20373;-83
2022/11/14 04:43:51;;;;;;;;;;;4.60;80.90;;;;;;5082934;28;20399;-83
2022/11/14 04:46:17;;;;;;;;;;;4.50;80.30;;;;;;5055218;28;20290;-83
2022/11/14 04:48:42;;;;;;;;;;;4.40;80.60;;;;;;5077693;28;19985;-83
2022/11/14 04:51:08;;;;;;;;;;;4.40;80.70;;;;;;5072100;28;19912;-83
2022/11/14 04:53:33;;;;;;;;;;;4.30;80.90;;;;;;5072185;28;19940;-83
2022/11/14 04:55:59;;;;;;;;;;;4.30;81.20;;;;;;5075491;28;20994;-83
2022/11/14 04:58:24;;;;;;;;;;;4.30;81.60;;;;;;5069369;28;19924;-84
2022/11/14 05:00:49;;;;;;;;;;;4.30;81.30;;;;;;5063328;28;19912;-84
2022/11/14 05:03:15;;;;;;;;;;;4.30;81.20;;;;;;5061945;28;19926;-84
2022/11/14 05:05:40;;;;;;;;;;;4.50;81.80;;;;;;5089685;28;19952;-84
2022/11/14 05:08:06;;;;;;;;;;;4.40;82.00;;;;;;5068246;28;19970;-83
2022/11/14 05:10:31;;;;;;;;;;;4.40;82.40;;;;;;5060688;28;19912;-82
2022/11/14 05:12:57;;;;;;;;;;;4.50;81.90;;;;;;5076576;28;19932;-83
2022/11/14 05:15:22;;;;;;;;;;;4.40;82.20;;;;;;5058098;28;19927;-85
2022/11/14 05:17:48;;;;;;;;;;;4.50;82.30;;;;;;5076357;28;19919;-83
2022/11/14 05:20:13;;;;;;;;;;;4.60;82.00;;;;;;5063872;28;20035;-82
2022/11/14 05:22:39;;;;;;;;;;;4.50;82.00;;;;;;5056769;28;19950;-85
2022/11/14 05:25:05;;;;;;;;;;;4.50;81.50;;;;;;5056579;28;19916;-83
2022/11/14 05:27:30;;;;;;;;;;;4.40;81.70;;;;;;5074310;28;19939;-82
2022/11/14 05:29:56;;;;;;;;;;;4.40;81.30;;;;;;5064660;28;19916;-82
2022/11/14 05:32:21;;;;;;;;;;;4.40;81.70;;;;;;5068978;28;19927;-82
2022/11/14 05:34:47;;;;;;;;;;;4.30;81.10;;;;;;5057375;28;19919;-82
2022/11/14 05:37:12;;;;;;;;;;;4.30;81.60;;;;;;5077292;28;19912;-82
2022/11/14 05:39:38;;;;;;;;;;;4.20;81.60;;;;;;5055211;28;19965;-84
2022/11/14 05:42:03;;;;;;;;;;;4.20;81.40;;;;;;5054518;28;20365;-83
2022/11/14 05:44:29;;;;;;;;;;;4.10;81.00;;;;;;5059558;28;20293;-83
2022/11/14 05:46:54;;;;;;;;;;;4.00;81.90;;;;;;5083606;28;19912;-83
2022/11/14 05:49:20;;;;;;;;;;;4.00;81.60;;;;;;5082321;28;19977;-83
2022/11/14 05:51:45;;;;;;;;;;;4.00;81.30;;;;;;5076801;28;19990;-83
2022/11/14 05:54:10;;;;;;;;;;;4.10;80.90;;;;;;5085248;28;19934;-83
2022/11/14 05:56:36;;;;;;;;;;;3.90;80.30;;;;;;5077303;28;19939;-83
2022/11/14 05:59:01;;;;;;;;;;;3.90;80.50;;;;;;5080604;28;19924;-83
2022/11/14 06:01:27;;;;;;;;;;;3.80;81.50;;;;;;5050442;28;19919;-82
2022/11/14 06:03:52;;;;;;;;;;;3.90;82.10;;;;;;5075129;28;19912;-83
2022/11/14 06:06:19;;;;;;;;;;;4.00;82.40;;;;;;5051222;28;19912;-82
2022/11/14 06:08:44;;;;;;;;;;;4.00;82.60;;;;;;5076584;28;20079;-84
2022/11/14 06:11:15;;;;;;;;;;;3.90;82.60;;;;;;5052757;28;19916;-82
2022/11/14 06:13:41;;;;;;;;;;;4.00;81.70;;;;;;5067256;28;19955;-83
2022/11/14 06:16:08;;;;;;;;;;;3.90;81.20;;;;;;5050512;28;19939;-83
2022/11/14 06:18:34;;;;;;;;;;;3.80;81.00;;;;;;5054483;28;19920;-83
2022/11/14 06:21:00;;;;;;;;;;;3.70;81.70;;;;;;5057779;28;19921;-84
2022/11/14 06:23:26;;;;;;;;;;;3.80;81.40;;;;;;5065090;28;19916;-84
2022/11/14 06:25:56;;;;;;;;;;;3.90;81.30;;;;;;5066530;28;19944;-84
2022/11/14 06:28:22;;;;;;;;;;;3.80;81.40;;;;;;5077630;28;20763;-85
2022/11/14 06:30:47;;;;;;;;;;;4.00;81.70;;;;;;5056548;28;19966;-85
2022/11/14 06:33:12;;;;;;;;;;;4.00;81.70;;;;;;5048436;28;20196;-83
2022/11/14 06:35:38;;;;;;;;;;;4.20;81.80;;;;;;5069559;28;19913;-84
2022/11/14 06:38:03;;;;;;;;;;;4.20;81.60;;;;;;5064355;28;19921;-84
2022/11/14 06:40:29;;;;;;;;;;;4.10;82.10;;;;;;5065485;28;20428;-83
2022/11/14 06:42:55;;;;;;;;;;;4.00;82.30;;;;;;5082085;28;19912;-85
2022/11/14 06:45:21;;;;;;;;;;;3.90;82.00;;;;;;5059168;28;19996;-83
2022/11/14 06:47:46;;;;;;;;;;;3.90;82.20;;;;;;5077679;28;19920;-83
2022/11/14 06:50:12;;;;;;;;;;;3.90;82.20;;;;;;5076532;28;19954;-83
2022/11/14 06:52:37;;;;;;;;;;;4.00;81.80;;;;;;5081330;28;19912;-85
2022/11/14 06:55:03;;;;;;;;;;;4.00;81.60;;;;;;5077241;28;19917;-84
2022/11/14 06:57:28;;;;;;;;;;;4.00;81.80;;;;;;5079806;28;20437;-86
2022/11/14 06:59:53;;;;;;;;;;;4.10;81.70;;;;;;5076344;28;19947;-84
2022/11/14 07:02:19;;;;;;;;;;;4.00;82.40;;;;;;5053781;28;19920;-85
2022/11/14 07:04:44;;;;;;;;;;;4.00;82.00;;;;;;5077419;28;19912;-88
2022/11/14 07:07:10;;;;;;;;;;;4.10;81.90;;;;;;5055043;28;20381;-86
2022/11/14 07:09:35;;;;;;;;;;;4.10;81.60;;;;;;5056511;28;19920;-84
2022/11/14 07:12:01;;;;;;;;;;;4.10;81.70;;;;;;5067869;28;19912;-86
2022/11/14 07:14:27;;;;;;;;;;;4.10;81.30;;;;;;5084217;28;19908;-84
2022/11/14 07:16:59;;;;;;;;;;;4.00;81.70;;;;;;5102018;28;19915;-84
2022/11/14 07:19:24;;;;;;;;;;;4.00;81.50;;;;;;5087537;28;19927;-85
2022/11/14 07:21:50;;;;;;;;;;;4.00;81.50;;;;;;5079712;28;19916;-85
2022/11/14 07:24:15;;;;;;;;;;;4.00;81.80;;;;;;5069414;28;19934;-85
2022/11/14 07:26:41;;;;;;;;;;;4.00;82.00;;;;;;5063878;28;19974;-83
2022/11/14 07:29:06;;;;;;;;;;;3.90;82.00;;;;;;5079297;28;20255;-84
2022/11/14 07:31:32;;;;;;;;;;;4.00;82.10;;;;;;5072329;28;20319;-84
2022/11/14 07:33:57;;;;;;;;;;;4.00;82.10;;;;;;5092422;28;20299;-84
2022/11/14 07:36:23;;;;;;;;;;;4.10;81.70;;;;;;5060165;28;19912;-84
2022/11/14 07:38:48;;;;;;;;;;;4.30;81.40;;;;;;5060908;28;19908;-85
2022/11/14 07:41:14;;;;;;;;;;;4.30;81.40;;;;;;5061938;28;19909;-84
2022/11/14 07:43:41;;;;;;;;;;;4.40;81.60;;;;;;5077129;28;20190;-84
2022/11/14 07:46:16;;;;;;;;;;;4.40;81.60;;;;;;5059287;28;19919;-85
2022/11/14 07:48:42;;;;;;;;;;;4.50;81.80;;;;;;5079155;28;19920;-84
2022/11/14 07:51:18;;;;;;;;;;;4.50;82.00;;;;;;5085241;28;19919;-84
2022/11/14 07:53:43;;;;;;;;;;;4.50;82.00;;;;;;5084314;28;19955;-84
2022/11/14 07:56:09;;;;;;;;;;;4.60;82.60;;;;;;5057837;28;19916;-84
2022/11/14 07:58:36;;;;;;;;;;;4.60;82.60;;;;;;5058337;28;19961;-84
2022/11/14 08:01:05;;;;;;;;;;;4.80;82.20;;;;;;5058155;28;19947;-84
2022/11/14 08:03:30;;;;;;;;;;;4.80;81.50;;;;;;5075532;28;19924;-85
2022/11/14 08:06:03;;;;;;;;;;;5.00;80.90;;;;;;5074655;28;20026;-84
2022/11/14 08:08:29;;;;;;;;;;;5.00;81.50;;;;;;5058019;28;19916;-85
2022/11/14 08:10:55;;;;;;;;;;;5.10;81.40;;;;;;5070110;28;19993;-84
2022/11/14 08:13:20;;;;;;;;;;;5.10;81.90;;;;;;5070611;28;20004;-84
2022/11/14 08:15:46;;;;;;;;;;;5.20;82.10;;;;;;5070899;28;19917;-84
2022/11/14 08:18:11;;;;;;;;;;;5.20;82.10;;;;;;5085549;28;20277;-85
2022/11/14 08:20:36;;;;;;;;;;;5.30;82.10;;;;;;5077631;28;19912;-84
2022/11/14 08:23:03;;;;;;;;;;;5.30;82.40;;;;;;5060918;28;19920;-85
2022/11/14 08:25:28;;;;;;;;;;;5.40;82.00;;;;;;5061697;28;19961;-85
2022/11/14 08:27:54;;;;;;;;;;;5.40;82.00;;;;;;5064148;28;19972;-85
2022/11/14 08:30:19;;;;;;;;;;;5.40;81.90;;;;;;5075489;23;20377;-83
2022/11/14 08:32:45;;;;;;;;;;;5.40;82.10;;;;;;5073475;28;19908;-82
2022/11/14 08:35:10;;;;;;;;;;;5.50;83.00;;;;;;5075842;28;20086;-82
2022/11/14 08:37:36;;;;;;;;;;;5.50;83.30;;;;;;5077792;28;19919;-83
2022/11/14 08:40:01;;;;;;;;;;;5.60;83.60;;;;;;5046568;28;19913;-83
2022/11/14 08:42:27;;;;;;;;;;;5.70;83.50;;;;;;5058206;28;19912;-82
2022/11/14 08:44:53;;;;;;;;;;;5.80;83.40;;;;;;5056996;28;20024;-83
2022/11/14 08:47:18;;;;;;;;;;;5.90;83.20;;;;;;5057419;28;19920;-81
2022/11/14 08:49:44;;;;;;;;;;;6.00;83.30;;;;;;5039443;28;19968;-82
2022/11/14 08:52:09;;;;;;;;;;;6.00;83.10;;;;;;5065636;28;19980;-82
2022/11/14 08:54:34;;;;;;;;;;;6.00;83.60;;;;;;5056486;28;20003;-81
2022/11/14 08:57:00;;;;;;;;;;;6.10;83.90;;;;;;5059147;28;19967;-84
2022/11/14 08:59:25;;;;;;;;;;;6.40;84.10;;;;;;5039784;28;20294;-83
2022/11/14 09:01:51;;;;;;;;;;;6.50;83.80;;;;;;5037856;28;19959;-82
2022/11/14 09:04:16;;;;;;;;;;;6.60;83.20;;;;;;5040055;28;19916;-83
2022/11/14 09:06:42;;;;;;;;;;;6.80;82.70;;;;;;5054470;28;19949;-83
2022/11/14 09:09:07;;;;;;;;;;;6.90;83.00;;;;;;5055386;28;19952;-82
2022/11/14 09:11:32;;;;;;;;;;;7.00;82.80;;;;;;5055960;28;20003;-83
2022/11/14 09:14:00;;;;;;;;;;;7.10;82.90;;;;;;5037425;28;20616;-82
2022/11/14 09:16:25;;;;;;;;;;;7.10;81.80;;;;;;5031949;28;19947;-81
2022/11/14 09:18:51;;;;;;;;;;;7.10;81.60;;;;;;5056339;28;19913;-82
2022/11/14 09:21:16;;;;;;;;;;;7.30;80.90;;;;;;5057472;28;19909;-82
2022/11/14 09:23:41;;;;;;;;;;;7.50;79.20;;;;;;5056713;28;19924;-81
2022/11/14 09:26:08;;;;;;;;;;;7.50;79.80;;;;;;5057321;28;19916;-82
2022/11/14 09:28:33;;;;;;;;;;;7.60;79.50;;;;;;5056441;28;19974;-82
2022/11/14 09:31:00;;;;;;;;;;;7.70;78.90;;;;;;5038538;28;19925;-83
2022/11/14 09:33:25;;;;;;;;;;;7.90;77.70;;;;;;5052159;28;19916;-83
2022/11/14 09:36:01;;;;;;;;;;;8.00;77.20;;;;;;5057125;28;19920;-82
2022/11/14 09:38:27;;;;;;;;;;;8.10;77.00;;;;;;5056935;28;19913;-82
2022/11/14 09:40:58;;;;;;;;;;;8.10;77.30;;;;;;5057298;28;19936;-83
2022/11/14 09:43:27;;;;;;;;;;;8.20;77.00;;;;;;5056913;28;19913;-83
2022/11/14 09:45:52;;;;;;;;;;;8.20;76.90;;;;;;5054269;28;19921;-83
2022/11/14 09:48:24;;;;;;;;;;;8.30;76.30;;;;;;5054734;28;20021;-83
2022/11/14 09:50:53;;;;;;;;;;;8.40;76.40;;;;;;5053322;28;19919;-84
2022/11/14 09:53:28;;;;;;;;;;;8.40;75.90;;;;;;5060887;28;20033;-82
2022/11/14 09:55:53;;;;;;;;;;;8.50;75.50;;;;;;5041673;28;19944;-82
2022/11/14 09:58:19;;;;;;;;;;;8.60;75.30;;;;;;5054372;28;20267;-84
2022/11/14 10:01:01;;;;;;;;;;;8.70;75.00;;;;;;5054288;28;19964;-83
2022/11/14 10:03:37;;;;;;;;;;;8.70;74.40;;;;;;5055086;28;20008;-83
2022/11/14 10:06:17;;;;;;;;;;;8.80;74.90;;;;;;5055876;28;19913;-83
2022/11/14 10:08:43;;;;;;;;;;;8.90;74.80;;;;;;5056166;28;20267;-83
2022/11/14 10:11:27;;;;;;;;;;;9.00;74.90;;;;;;5056865;28;19919;-83
2022/11/14 10:14:01;;;;;;;;;;;9.10;74.90;;;;;;5071794;28;19932;-82
2022/11/14 10:16:26;;;;;;;;;;;9.10;74.10;;;;;;5065256;28;21116;-88
2022/11/14 10:19:06;;;;;;;;;;;9.10;73.60;;;;;;5054692;28;20307;-81
2022/11/14 10:21:43;;;;;;;;;;;9.10;74.00;;;;;;5053846;28;20393;-80
2022/11/14 10:24:11;;;;;;;;;;;9.00;74.20;;;;;;5048469;28;19916;-80
2022/11/14 10:26:42;;;;;;;;;;;9.00;74.40;;;;;;5055649;28;19912;-80
2022/11/14 10:29:23;;;;;;;;;;;9.00;74.40;;;;;;5059172;28;19938;-78
2022/11/14 10:31:54;;;;;;;;;;;9.00;74.30;;;;;;5074412;28;19944;-78
2022/11/14 10:34:32;;;;;;;;;;;9.00;74.70;;;;;;5055893;28;20393;-79
2022/11/14 10:37:14;;;;;;;;;;;9.10;75.00;;;;;;5037810;28;19921;-81
2022/11/14 10:39:50;;;;;;;;;;;9.10;74.90;;;;;;5059058;28;19919;-80
2022/11/14 10:42:25;;;;;;;;;;;9.20;74.40;;;;;;5055326;28;19951;-80
2022/11/14 10:45:10;;;;;;;;;;;9.20;74.80;;;;;;5037874;28;20356;-80
2022/11/14 10:47:38;;;;;;;;;;;9.20;74.90;;;;;;5055507;28;19915;-82
2022/11/14 10:50:13;;;;;;;;;;;9.20;74.70;;;;;;5031896;28;19917;-79
2022/11/14 10:52:40;;;;;;;;;;;9.20;74.60;;;;;;5054040;28;19913;-82
2022/11/14 10:55:07;;;;;;;;;;;9.20;74.40;;;;;;5032828;28;20391;-81
2022/11/14 10:57:32;;;;;;;;;;;9.20;74.80;;;;;;5043511;28;19924;-82
2022/11/14 10:59:58;;;;;;;;;;;9.20;74.90;;;;;;5051752;28;19913;-82
2022/11/14 11:02:23;;;;;;;;;;;9.30;75.50;;;;;;5039240;28;19919;-81
2022/11/14 11:04:49;;;;;;;;;;;9.30;74.90;;;;;;5052864;28;19956;-81
2022/11/14 11:13:02;;;;;;;;;;;9.30;75.30;;;;;;5050604;28;19920;-83
2022/11/14 11:15:37;;;;;;;;;;;9.50;75.00;;;;;;5052705;28;20379;-80
2022/11/14 11:18:04;;;;;;;;;;;9.50;74.60;;;;;;5055665;28;19921;-82
2022/11/14 11:20:29;;;;;;;;;;;9.60;75.10;;;;;;5048020;28;19909;-81
2022/11/14 11:23:05;;;;;;;;;;;9.90;74.50;;;;;;5055046;28;19913;-82
2022/11/14 11:25:32;;;;;;;;;;;9.90;74.20;;;;;;5033789;28;19929;-81
2022/11/14 11:28:06;;;;;;;;;;;9.90;74.60;;;;;;5050139;28;19921;-81
2022/11/14 11:30:31;;;;;;;;;;;10.00;73.00;;;;;;5044737;28;19916;-79
2022/11/14 11:33:14;;;;;;;;;;;9.90;73.30;;;;;;5035196;28;21209;-80
2022/11/14 11:35:40;;;;;;;;;;;10.00;73.40;;;;;;5029915;28;19960;-79
2022/11/14 11:38:06;;;;;;;;;;;10.10;73.70;;;;;;5052985;28;20509;-80
2022/11/14 11:40:32;;;;;;;;;;;10.10;73.60;;;;;;5055839;28;20340;-80
2022/11/14 11:43:00;;;;;;;;;;;9.90;74.10;;;;;;5037196;28;20306;-82
2022/11/14 11:45:27;;;;;;;;;;;9.90;74.10;;;;;;5054176;28;19913;-82
2022/11/14 11:47:55;;;;;;;;;;;9.90;74.00;;;;;;5056631;28;19970;-82
2022/11/14 11:50:23;;;;;;;;;;;9.80;74.50;;;;;;5056119;28;20263;-81
2022/11/14 11:53:10;;;;;;;;;;;9.80;74.30;;;;;;5057256;28;19967;-82
2022/11/14 11:55:40;;;;;;;;;;;9.70;74.60;;;;;;5042602;28;20336;-81
2022/11/14 11:58:11;;;;;;;;;;;9.90;74.50;;;;;;5061024;28;19956;-83
2022/11/14 12:00:37;;;;;;;;;;;9.80;74.80;;;;;;5059023;28;20317;-82
2022/11/14 12:03:04;;;;;;;;;;;10.00;74.50;;;;;;5062039;28;19956;-82
2022/11/14 12:05:44;;;;;;;;;;;10.00;74.20;;;;;;5059354;28;20357;-82
2022/11/14 12:08:17;;;;;;;;;;;10.00;74.00;;;;;;5038488;28;19917;-83
2022/11/14 12:10:43;;;;;;;;;;;10.00;74.20;;;;;;5060100;28;19981;-81
2022/11/14 12:13:21;;;;;;;;;;;10.00;74.20;;;;;;5057121;28;19952;-79
2022/11/14 12:16:05;;;;;;;;;;;10.10;74.30;;;;;;5048875;28;19948;-81
2022/11/14 12:18:42;;;;;;;;;;;10.10;74.70;;;;;;5047557;28;19920;-81
2022/11/14 12:21:26;;;;;;;;;;;10.10;74.50;;;;;;5061884;28;19916;-81
2022/11/14 12:23:55;;;;;;;;;;;10.10;74.70;;;;;;5070304;28;19952;-81
2022/11/14 12:26:39;;;;;;;;;;;10.40;73.90;;;;;;5073513;28;19960;-81
2022/11/14 12:29:05;;;;;;;;;;;10.50;73.80;;;;;;5064294;28;19921;-83
2022/11/14 12:31:32;;;;;;;;;;;10.70;73.10;;;;;;5062306;28;19920;-82
2022/11/14 12:33:59;;;;;;;;;;;10.90;72.40;;;;;;5077184;28;19909;-83
2022/11/14 12:36:27;;;;;;;;;;;10.70;72.20;;;;;;5064799;28;19919;-76
2022/11/14 12:38:53;;;;;;;;;;;10.60;73.20;;;;;;5075366;28;19913;-78
2022/11/14 12:41:26;;;;;;;;;;;10.60;73.20;;;;;;5061277;28;20023;-80
2022/11/14 12:43:52;;;;;;;;;;;10.60;73.00;;;;;;5059652;28;20131;-80
2022/11/14 12:46:17;;;;;;;;;;;10.70;73.40;;;;;;5058985;28;19966;-80
2022/11/14 12:48:46;;;;;;;;;;;10.80;72.90;;;;;;5056300;28;19992;-79
2022/11/14 12:51:24;;;;;;;;;;;10.80;72.90;;;;;;5055874;28;19916;-79
2022/11/14 12:53:50;;;;;;;;;;;10.80;72.90;;;;;;5056043;28;20031;-79
2022/11/14 12:56:27;;;;;;;;;;;10.80;73.10;;;;;;5041540;28;20013;-79
2022/11/14 12:59:12;;;;;;;;;;;10.80;73.20;;;;;;5050425;28;19917;-81
2022/11/14 13:01:58;;;;;;;;;;;10.90;73.40;;;;;;5056514;28;20382;-80
2022/11/14 13:04:23;;;;;;;;;;;11.00;72.80;;;;;;5029822;28;19913;-83
2022/11/14 13:06:58;;;;;;;;;;;11.10;72.60;;;;;;5056978;28;20688;-81
2022/11/14 13:09:31;;;;;;;;;;;11.10;72.50;;;;;;5074461;28;19943;-83
2022/11/14 13:23:25;;;;;;;;;;;10.80;73.40;;;;;;5058188;28;19920;-82
2022/11/14 13:26:09;;;;;;;;;;;11.00;73.50;;;;;;5057471;28;20062;-80
2022/11/14 13:28:34;;;;;;;;;;;10.80;74.20;;;;;;5038392;28;19917;-82
2022/11/14 13:31:05;;;;;;;;;;;11.00;74.30;;;;;;5055311;28;19923;-79
2022/11/14 13:33:40;;;;;;;;;;;11.00;74.20;;;;;;5055294;28;19913;-82
2022/11/14 13:36:08;;;;;;;;;;;10.90;73.90;;;;;;5057586;28;20298;-80
2022/11/14 13:38:40;;;;;;;;;;;10.90;74.20;;;;;;5061016;28;19932;-80
2022/11/14 13:41:24;;;;;;;;;;;10.90;74.50;;;;;;5060013;28;19920;-81
2022/11/14 13:43:56;;;;;;;;;;;11.00;74.00;;;;;;5060581;28;19920;-82
2022/11/14 13:46:42;;;;;;;;;;;11.00;73.40;;;;;;5073281;28;19920;-79
2022/11/14 13:49:13;;;;;;;;;;;10.80;73.80;;;;;;5076230;28;19923;-81
2022/11/14 13:51:39;;;;;;;;;;;10.70;74.80;;;;;;5059996;28;19956;-82
2022/11/14 13:54:15;;;;;;;;;;;10.70;75.20;;;;;;5054544;28;20275;-81
2022/11/14 13:56:50;;;;;;;;;;;10.80;75.30;;;;;;5054591;28;19916;-82
2022/11/14 13:59:54;;;;;;;;;;;10.80;74.80;;;;;;5047266;28;19909;-80
2022/11/14 14:02:30;;;;;;;;;;;10.70;75.10;;;;;;4970520;28;19937;-81
2022/11/14 14:04:57;;;;;;;;;;;10.70;75.40;;;;;;4960719;28;20330;-81
2022/11/14 14:07:41;;;;;;;;;;;10.80;75.10;;;;;;5004231;28;20007;-80
2022/11/14 14:10:24;;;;;;;;;;;10.90;75.00;;;;;;5057000;28;19959;-82
2022/11/14 14:13:08;;;;;;;;;;;10.80;74.90;;;;;;5055493;28;19913;-81
2022/11/14 14:15:34;;;;;;;;;;;10.70;75.40;;;;;;5018961;28;19962;-82
2022/11/14 14:18:04;;;;;;;;;;;10.70;75.60;;;;;;5047216;28;20375;-81
2022/11/14 14:20:30;;;;;;;;;;;10.60;76.30;;;;;;5057861;28;20047;-80
2022/11/14 14:23:00;;;;;;;;;;;10.60;76.40;;;;;;5053523;28;19952;-81
2022/11/14 14:25:33;;;;;;;;;;;10.70;76.60;;;;;;5051490;28;19920;-81
2022/11/14 14:28:01;;;;;;;;;;;10.70;76.40;;;;;;5055493;28;19921;-80
2022/11/14 14:30:27;;;;;;;;;;;10.90;75.80;;;;;;5093367;23;19917;-84
2022/11/14 14:33:12;;;;;;;;;;;11.00;75.40;;;;;;5074191;28;19928;-84
2022/11/14 14:35:41;;;;;;;;;;;11.00;75.50;;;;;;5059237;28;20439;-83
2022/11/14 14:38:20;;;;;;;;;;;11.00;75.10;;;;;;5051789;28;19912;-82
2022/11/14 14:40:46;;;;;;;;;;;11.00;74.30;;;;;;5071309;28;19916;-82
2022/11/14 14:43:25;;;;;;;;;;;11.10;73.00;;;;;;5053995;28;19924;-81
2022/11/14 14:45:52;;;;;;;;;;;11.10;73.30;;;;;;5054920;28;20362;-82
2022/11/14 14:48:21;;;;;;;;;;;10.90;73.10;;;;;;5067549;28;19917;-82
2022/11/14 14:50:48;;;;;;;;;;;11.00;72.80;;;;;;5082322;28;19909;-82